sensor_id;sensor_type;location;lat;lon;timestamp;pressure;altitude;pressure_sealevel;temperature;humidity
30347;BME280;19047;44.782;20.468;2022-07-15T00:02:58;100542.47;;;27.52;31.56
30347;BME280;19047;44.782;20.468;2022-07-15T00:06:30;100534.44;;;27.45;31.97
30347;BME280;19047;44.782;20.468;2022-07-15T00:09:47;100559.72;;;27.57;31.44
30347;BME280;19047;44.782;20.468;2022-07-15T00:13:37;100535.78;;;27.38;32.32
30347;BME280;19047;44.782;20.468;2022-07-15T00:16:54;100557.69;;;27.47;31.98
30347;BME280;19047;44.782;20.468;2022-07-15T00:20:24;100529.66;;;27.23;32.47
30347;BME280;19047;44.782;20.468;2022-07-15T00:23:41;100557.22;;;27.37;32.09
30347;BME280;19047;44.782;20.468;2022-07-15T00:27:12;100545.59;;;27.24;32.45
30347;BME280;19047;44.782;20.468;2022-07-15T00:30:31;100551.56;;;27.26;32.38
30347;BME280;19047;44.782;20.468;2022-07-15T00:34:03;100544.31;;;27.19;32.62
30347;BME280;19047;44.782;20.468;2022-07-15T00:37:21;100532.16;;;27.02;32.22
30347;BME280;19047;44.782;20.468;2022-07-15T00:40:52;100558.47;;;27.12;32.85
30347;BME280;19047;44.782;20.468;2022-07-15T00:44:09;100556.16;;;27.05;32.38
30347;BME280;19047;44.782;20.468;2022-07-15T00:47:42;100558.78;;;27.03;33.05
30347;BME280;19047;44.782;20.468;2022-07-15T00:50:59;100532.28;;;26.80;32.69
30347;BME280;19047;44.782;20.468;2022-07-15T00:54:32;100498.22;;;26.54;32.96
30347;BME280;19047;44.782;20.468;2022-07-15T00:57:51;100529.22;;;26.67;32.64
30347;BME280;19047;44.782;20.468;2022-07-15T01:01:23;100522.44;;;26.64;33.02
30347;BME280;19047;44.782;20.468;2022-07-15T01:04:40;100543.50;;;26.72;32.94
30347;BME280;19047;44.782;20.468;2022-07-15T01:08:11;100525.38;;;26.53;33.55
30347;BME280;19047;44.782;20.468;2022-07-15T01:11:28;100556.63;;;26.62;33.20
30347;BME280;19047;44.782;20.468;2022-07-15T01:15:00;100543.09;;;26.57;33.70
30347;BME280;19047;44.782;20.468;2022-07-15T01:18:17;100537.66;;;26.42;33.42
30347;BME280;19047;44.782;20.468;2022-07-15T01:21:48;100542.34;;;26.45;33.92
30347;BME280;19047;44.782;20.468;2022-07-15T01:25:07;100521.28;;;26.26;33.76
30347;BME280;19047;44.782;20.468;2022-07-15T01:28:39;100535.34;;;26.35;34.39
30347;BME280;19047;44.782;20.468;2022-07-15T01:31:57;100527.31;;;26.28;33.92
30347;BME280;19047;44.782;20.468;2022-07-15T01:35:27;100520.50;;;26.20;34.48
30347;BME280;19047;44.782;20.468;2022-07-15T01:38:45;100517.94;;;26.16;34.13
30347;BME280;19047;44.782;20.468;2022-07-15T01:42:16;100515.06;;;26.11;34.70
30347;BME280;19047;44.782;20.468;2022-07-15T01:45:33;100487.00;;;25.87;34.18
30347;BME280;19047;44.782;20.468;2022-07-15T01:49:09;100458.69;;;25.61;34.75
30347;BME280;19047;44.782;20.468;2022-07-15T01:52:54;100494.84;;;25.75;34.37
30347;BME280;19047;44.782;20.468;2022-07-15T01:56:25;100493.28;;;25.69;35.24
30347;BME280;19047;44.782;20.468;2022-07-15T01:59:42;100513.84;;;25.78;35.04
30347;BME280;19047;44.782;20.468;2022-07-15T02:03:20;100514.91;;;25.75;35.97
30347;BME280;19047;44.782;20.468;2022-07-15T02:06:37;100503.97;;;25.68;35.89
30347;BME280;19047;44.782;20.468;2022-07-15T02:10:10;100489.13;;;25.59;37.06
30347;BME280;19047;44.782;20.468;2022-07-15T02:13:32;100461.81;;;25.41;36.49
30347;BME280;19047;44.782;20.468;2022-07-15T02:17:03;100467.78;;;25.37;37.28
30347;BME280;19047;44.782;20.468;2022-07-15T02:20:24;100482.34;;;25.45;36.79
30347;BME280;19047;44.782;20.468;2022-07-15T02:23:56;100483.94;;;25.40;38.57
30347;BME280;19047;44.782;20.468;2022-07-15T02:27:15;100452.97;;;25.17;37.86
30347;BME280;19047;44.782;20.468;2022-07-15T02:30:46;100470.41;;;25.30;39.40
30347;BME280;19047;44.782;20.468;2022-07-15T02:34:04;100464.13;;;25.20;38.95
30347;BME280;19047;44.782;20.468;2022-07-15T02:37:35;100446.97;;;25.03;40.72
30347;BME280;19047;44.782;20.468;2022-07-15T02:40:52;100474.28;;;25.10;39.45
30347;BME280;19047;44.782;20.468;2022-07-15T02:44:23;100479.00;;;25.07;41.08
30347;BME280;19047;44.782;20.468;2022-07-15T02:47:42;100467.00;;;24.87;40.45
30347;BME280;19047;44.782;20.468;2022-07-15T02:51:18;100508.91;;;24.95;41.48
30347;BME280;19047;44.782;20.468;2022-07-15T02:54:35;100465.13;;;24.72;40.88
30347;BME280;19047;44.782;20.468;2022-07-15T02:58:08;100473.19;;;24.68;42.17
30347;BME280;19047;44.782;20.468;2022-07-15T03:01:25;100471.09;;;24.63;41.60
30347;BME280;19047;44.782;20.468;2022-07-15T03:04:56;100481.22;;;24.59;42.98
30347;BME280;19047;44.782;20.468;2022-07-15T03:08:13;100491.63;;;24.56;42.13
30347;BME280;19047;44.782;20.468;2022-07-15T03:11:43;100501.28;;;24.64;43.50
30347;BME280;19047;44.782;20.468;2022-07-15T03:15:01;100479.91;;;24.43;42.84
30347;BME280;19047;44.782;20.468;2022-07-15T03:18:32;100498.13;;;24.51;44.32
30347;BME280;19047;44.782;20.468;2022-07-15T03:21:49;100475.16;;;24.29;43.24
30347;BME280;19047;44.782;20.468;2022-07-15T03:25:24;100503.56;;;24.44;43.31
30347;BME280;19047;44.782;20.468;2022-07-15T03:28:46;100506.66;;;24.40;43.29
30347;BME280;19047;44.782;20.468;2022-07-15T03:32:17;100492.31;;;24.34;43.52
30347;BME280;19047;44.782;20.468;2022-07-15T03:35:36;100494.66;;;24.30;43.72
30347;BME280;19047;44.782;20.468;2022-07-15T03:39:08;100509.47;;;24.29;44.08
30347;BME280;19047;44.782;20.468;2022-07-15T03:42:25;100503.47;;;24.27;44.05
30347;BME280;19047;44.782;20.468;2022-07-15T03:45:56;100448.47;;;23.89;44.01
30347;BME280;19047;44.782;20.468;2022-07-15T03:49:17;100501.13;;;24.25;44.26
30347;BME280;19047;44.782;20.468;2022-07-15T03:52:48;100496.19;;;24.26;44.11
30347;BME280;19047;44.782;20.468;2022-07-15T03:56:05;100502.19;;;24.28;43.93
30347;BME280;19047;44.782;20.468;2022-07-15T03:59:36;100512.63;;;24.31;44.14
30347;BME280;19047;44.782;20.468;2022-07-15T04:02:53;100512.88;;;24.33;44.27
30347;BME280;19047;44.782;20.468;2022-07-15T04:06:23;100513.41;;;24.37;44.45
30347;BME280;19047;44.782;20.468;2022-07-15T04:09:44;100522.81;;;24.43;44.30
30347;BME280;19047;44.782;20.468;2022-07-15T04:13:14;100521.25;;;24.48;44.63
30347;BME280;19047;44.782;20.468;2022-07-15T04:16:35;100525.16;;;24.56;44.79
30347;BME280;19047;44.782;20.468;2022-07-15T04:20:20;100521.81;;;24.63;44.68
30347;BME280;19047;44.782;20.468;2022-07-15T04:23:39;100527.03;;;24.70;44.53
30347;BME280;19047;44.782;20.468;2022-07-15T04:27:09;100531.72;;;24.79;44.54
30347;BME280;19047;44.782;20.468;2022-07-15T04:30:27;100533.06;;;24.89;44.54
30347;BME280;19047;44.782;20.468;2022-07-15T04:33:59;100534.16;;;24.97;44.45
30347;BME280;19047;44.782;20.468;2022-07-15T04:37:16;100536.78;;;25.06;44.58
30347;BME280;19047;44.782;20.468;2022-07-15T04:40:47;100507.28;;;24.89;44.38
30347;BME280;19047;44.782;20.468;2022-07-15T04:44:13;100532.38;;;25.27;45.04
30347;BME280;19047;44.782;20.468;2022-07-15T04:47:45;100534.44;;;25.38;44.69
30347;BME280;19047;44.782;20.468;2022-07-15T04:51:11;100524.81;;;25.46;44.41
30347;BME280;19047;44.782;20.468;2022-07-15T04:54:42;100524.28;;;25.59;44.20
30347;BME280;19047;44.782;20.468;2022-07-15T04:57:59;100517.53;;;25.68;43.96
30347;BME280;19047;44.782;20.468;2022-07-15T05:01:30;100519.06;;;25.80;44.35
30347;BME280;19047;44.782;20.468;2022-07-15T05:04:47;100528.44;;;25.92;43.53
30347;BME280;19047;44.782;20.468;2022-07-15T05:08:18;100533.88;;;26.06;44.17
30347;BME280;19047;44.782;20.468;2022-07-15T05:11:38;100530.19;;;26.17;42.84
30347;BME280;19047;44.782;20.468;2022-07-15T05:15:08;100516.09;;;26.19;43.31
30347;BME280;19047;44.782;20.468;2022-07-15T05:18:26;100499.91;;;26.33;42.80
30347;BME280;19047;44.782;20.468;2022-07-15T05:21:57;100528.63;;;26.74;43.07
30347;BME280;19047;44.782;20.468;2022-07-15T05:25:15;100508.97;;;26.95;43.10
30347;BME280;19047;44.782;20.468;2022-07-15T05:28:45;100527.75;;;27.31;42.90
30347;BME280;19047;44.782;20.468;2022-07-15T05:32:02;100525.16;;;27.63;42.38
30347;BME280;19047;44.782;20.468;2022-07-15T05:35:35;100532.91;;;27.98;42.09
30347;BME280;19047;44.782;20.468;2022-07-15T05:38:53;100541.09;;;28.37;41.99
30347;BME280;19047;44.782;20.468;2022-07-15T05:42:25;100547.16;;;28.77;41.07
30347;BME280;19047;44.782;20.468;2022-07-15T05:45:42;100512.59;;;28.77;40.43
30347;BME280;19047;44.782;20.468;2022-07-15T05:49:16;100565.28;;;29.60;39.33
30347;BME280;19047;44.782;20.468;2022-07-15T05:52:36;100568.28;;;29.99;38.74
30347;BME280;19047;44.782;20.468;2022-07-15T05:56:08;100557.72;;;30.41;38.06
30347;BME280;19047;44.782;20.468;2022-07-15T05:59:26;100566.59;;;30.83;37.69
30347;BME280;19047;44.782;20.468;2022-07-15T06:02:55;100512.84;;;30.80;37.58
30347;BME280;19047;44.782;20.468;2022-07-15T06:06:14;100566.19;;;31.68;37.00
30347;BME280;19047;44.782;20.468;2022-07-15T06:09:44;100570.59;;;32.10;36.24
30347;BME280;19047;44.782;20.468;2022-07-15T06:13:03;100576.84;;;32.50;35.65
30347;BME280;19047;44.782;20.468;2022-07-15T06:16:35;100541.78;;;32.69;35.13
30347;BME280;19047;44.782;20.468;2022-07-15T06:19:52;100575.66;;;33.33;34.17
30347;BME280;19047;44.782;20.468;2022-07-15T06:23:23;100567.97;;;33.74;33.57
30347;BME280;19047;44.782;20.468;2022-07-15T06:26:40;100568.34;;;34.16;33.43
30347;BME280;19047;44.782;20.468;2022-07-15T06:30:10;100570.59;;;34.55;32.60
30347;BME280;19047;44.782;20.468;2022-07-15T06:33:27;100568.31;;;34.94;32.66
30347;BME280;19047;44.782;20.468;2022-07-15T06:36:58;100569.31;;;35.29;32.27
30347;BME280;19047;44.782;20.468;2022-07-15T06:40:15;100580.16;;;35.61;31.71
30347;BME280;19047;44.782;20.468;2022-07-15T06:43:48;100587.53;;;35.87;31.21
30347;BME280;19047;44.782;20.468;2022-07-15T06:47:21;100603.28;;;36.08;31.08
30347;BME280;19047;44.782;20.468;2022-07-15T06:50:52;100602.53;;;36.25;31.14
30347;BME280;19047;44.782;20.468;2022-07-15T06:54:09;100595.03;;;36.39;30.90
30347;BME280;19047;44.782;20.468;2022-07-15T06:57:42;100587.16;;;36.49;30.63
30347;BME280;19047;44.782;20.468;2022-07-15T07:00:59;100595.03;;;36.56;30.29
30347;BME280;19047;44.782;20.468;2022-07-15T07:04:30;100588.16;;;36.62;30.03
30347;BME280;19047;44.782;20.468;2022-07-15T07:07:47;100588.53;;;36.66;29.62
30347;BME280;19047;44.782;20.468;2022-07-15T07:11:18;100588.44;;;36.73;29.58
30347;BME280;19047;44.782;20.468;2022-07-15T07:14:35;100578.06;;;36.80;28.95
30347;BME280;19047;44.782;20.468;2022-07-15T07:18:05;100578.13;;;36.89;28.71
30347;BME280;19047;44.782;20.468;2022-07-15T07:21:22;100572.53;;;37.01;28.51
30347;BME280;19047;44.782;20.468;2022-07-15T07:24:52;100577.81;;;37.12;27.96
30347;BME280;19047;44.782;20.468;2022-07-15T07:28:09;100574.84;;;37.20;27.75
30347;BME280;19047;44.782;20.468;2022-07-15T07:31:39;100581.94;;;37.26;27.42
30347;BME280;19047;44.782;20.468;2022-07-15T07:34:56;100571.81;;;37.27;26.99
30347;BME280;19047;44.782;20.468;2022-07-15T07:38:28;100575.66;;;37.30;27.07
30347;BME280;19047;44.782;20.468;2022-07-15T07:41:45;100577.97;;;37.32;26.94
30347;BME280;19047;44.782;20.468;2022-07-15T07:45:17;100575.19;;;37.34;26.75
30347;BME280;19047;44.782;20.468;2022-07-15T07:48:34;100575.97;;;37.34;26.67
30347;BME280;19047;44.782;20.468;2022-07-15T07:52:35;100578.72;;;37.32;26.31
30347;BME280;19047;44.782;20.468;2022-07-15T07:56:04;100578.41;;;37.28;26.13
30347;BME280;19047;44.782;20.468;2022-07-15T07:59:40;100588.72;;;37.29;26.35
30347;BME280;19047;44.782;20.468;2022-07-15T08:03:14;100571.59;;;37.16;26.73
30347;BME280;19047;44.782;20.468;2022-07-15T08:06:58;100585.66;;;37.37;26.38
30347;BME280;19047;44.782;20.468;2022-07-15T08:10:20;100580.66;;;37.47;26.14
30347;BME280;19047;44.782;20.468;2022-07-15T08:13:53;100581.34;;;37.64;26.23
30347;BME280;19047;44.782;20.468;2022-07-15T08:17:16;100578.22;;;37.89;25.88
30347;BME280;19047;44.782;20.468;2022-07-15T08:20:57;100536.91;;;37.93;25.15
30347;BME280;19047;44.782;20.468;2022-07-15T08:24:47;100530.22;;;38.29;24.75
30347;BME280;19047;44.782;20.468;2022-07-15T08:28:20;100592.38;;;39.06;24.52
30347;BME280;19047;44.782;20.468;2022-07-15T08:31:53;100587.81;;;39.54;24.30
30347;BME280;19047;44.782;20.468;2022-07-15T08:35:34;100588.22;;;40.00;23.69
30347;BME280;19047;44.782;20.468;2022-07-15T08:38:51;100585.47;;;40.45;23.32
30347;BME280;19047;44.782;20.468;2022-07-15T08:42:29;100584.66;;;40.87;23.07
30347;BME280;19047;44.782;20.468;2022-07-15T08:45:52;100591.81;;;41.29;22.68
30347;BME280;19047;44.782;20.468;2022-07-15T08:49:24;100586.03;;;41.64;22.56
30347;BME280;19047;44.782;20.468;2022-07-15T08:52:52;100587.25;;;42.19;22.22
30347;BME280;19047;44.782;20.468;2022-07-15T08:56:24;100592.16;;;42.63;22.18
30347;BME280;19047;44.782;20.468;2022-07-15T08:59:41;100588.69;;;43.04;21.61
30347;BME280;19047;44.782;20.468;2022-07-15T09:03:12;100589.47;;;43.43;21.63
30347;BME280;19047;44.782;20.468;2022-07-15T09:06:33;100594.34;;;43.78;21.26
30347;BME280;19047;44.782;20.468;2022-07-15T09:10:03;100543.38;;;43.75;21.04
30347;BME280;19047;44.782;20.468;2022-07-15T09:20:27;100588.03;;;45.10;20.24
30347;BME280;19047;44.782;20.468;2022-07-15T09:23:57;100598.84;;;45.35;19.98
30347;BME280;19047;44.782;20.468;2022-07-15T09:27:33;100591.28;;;45.62;19.68
30347;BME280;19047;44.782;20.468;2022-07-15T09:31:03;100589.53;;;45.88;19.53
30347;BME280;19047;44.782;20.468;2022-07-15T09:34:38;100588.66;;;46.17;19.18
30347;BME280;19047;44.782;20.468;2022-07-15T09:41:50;100589.69;;;46.75;18.68
30347;BME280;19047;44.782;20.468;2022-07-15T09:45:21;100582.72;;;47.02;18.29
30347;BME280;19047;44.782;20.468;2022-07-15T09:48:39;100578.53;;;47.27;18.06
30347;BME280;19047;44.782;20.468;2022-07-15T09:52:11;100578.03;;;47.52;17.87
30347;BME280;19047;44.782;20.468;2022-07-15T09:55:29;100575.97;;;47.74;17.74
30347;BME280;19047;44.782;20.468;2022-07-15T09:59:00;100569.19;;;47.91;17.13
30347;BME280;19047;44.782;20.468;2022-07-15T10:02:18;100575.81;;;48.10;17.06
30347;BME280;19047;44.782;20.468;2022-07-15T10:05:53;100569.63;;;48.23;17.21
30347;BME280;19047;44.782;20.468;2022-07-15T10:09:14;100514.59;;;47.99;17.11
30347;BME280;19047;44.782;20.468;2022-07-15T10:13:16;100571.41;;;48.52;16.61
30347;BME280;19047;44.782;20.468;2022-07-15T10:20:17;100567.59;;;48.72;16.30
30347;BME280;19047;44.782;20.468;2022-07-15T10:30:36;100569.31;;;48.79;15.94
30347;BME280;19047;44.782;20.468;2022-07-15T10:37:24;100566.84;;;48.71;15.68
30347;BME280;19047;44.782;20.468;2022-07-15T10:40:58;100564.44;;;48.66;15.82
30347;BME280;19047;44.782;20.468;2022-07-15T10:44:15;100558.28;;;48.59;15.84
30347;BME280;19047;44.782;20.468;2022-07-15T10:48:25;100561.06;;;48.53;16.02
30347;BME280;19047;44.782;20.468;2022-07-15T10:51:44;100559.25;;;48.44;15.96
30347;BME280;19047;44.782;20.468;2022-07-15T10:55:20;100528.16;;;48.25;15.47
30347;BME280;19047;44.782;20.468;2022-07-15T10:58:37;100533.75;;;48.15;15.53
30347;BME280;19047;44.782;20.468;2022-07-15T11:05:26;100550.00;;;48.14;15.74
30347;BME280;19047;44.782;20.468;2022-07-15T11:08:57;100543.31;;;48.14;15.66
30347;BME280;19047;44.782;20.468;2022-07-15T11:12:15;100500.78;;;47.85;15.28
30347;BME280;19047;44.782;20.468;2022-07-15T11:15:57;100492.72;;;47.88;15.42
30347;BME280;19047;44.782;20.468;2022-07-15T11:19:15;100540.78;;;48.26;15.61
30347;BME280;19047;44.782;20.468;2022-07-15T11:22:48;100531.97;;;48.28;15.21
30347;BME280;19047;44.782;20.468;2022-07-15T11:26:05;100506.16;;;48.11;15.13
30347;BME280;19047;44.782;20.468;2022-07-15T11:29:44;100529.25;;;48.36;14.92
30347;BME280;19047;44.782;20.468;2022-07-15T11:33:05;100527.81;;;48.37;15.12
30347;BME280;19047;44.782;20.468;2022-07-15T11:36:36;100526.53;;;48.42;15.39
30347;BME280;19047;44.782;20.468;2022-07-15T11:40:13;100530.47;;;48.49;15.18
30347;BME280;19047;44.782;20.468;2022-07-15T11:47:41;100522.19;;;48.67;15.00
30347;BME280;19047;44.782;20.468;2022-07-15T11:51:26;100520.78;;;48.70;15.04
30347;BME280;19047;44.782;20.468;2022-07-15T11:54:43;100516.38;;;48.71;14.66
30347;BME280;19047;44.782;20.468;2022-07-15T11:58:14;100520.09;;;48.72;14.90
30347;BME280;19047;44.782;20.468;2022-07-15T12:01:31;100504.63;;;48.75;14.77
30347;BME280;19047;44.782;20.468;2022-07-15T12:05:04;100514.31;;;48.76;14.86
30347;BME280;19047;44.782;20.468;2022-07-15T12:08:32;100509.81;;;48.75;14.75
30347;BME280;19047;44.782;20.468;2022-07-15T12:12:04;100512.84;;;48.77;14.88
30347;BME280;19047;44.782;20.468;2022-07-15T12:15:21;100510.66;;;48.77;14.95
30347;BME280;19047;44.782;20.468;2022-07-15T12:18:52;100518.16;;;48.80;14.58
30347;BME280;19047;44.782;20.468;2022-07-15T12:22:10;100513.81;;;48.83;14.52
30347;BME280;19047;44.782;20.468;2022-07-15T12:25:39;100509.47;;;48.86;14.45
30347;BME280;19047;44.782;20.468;2022-07-15T12:28:58;100506.63;;;48.90;14.48
30347;BME280;19047;44.782;20.468;2022-07-15T12:32:29;100511.88;;;48.92;14.19
30347;BME280;19047;44.782;20.468;2022-07-15T12:35:47;100504.63;;;48.97;14.13
30347;BME280;19047;44.782;20.468;2022-07-15T12:39:18;100511.38;;;48.99;14.26
30347;BME280;19047;44.782;20.468;2022-07-15T12:46:15;100510.84;;;48.83;14.40
30347;BME280;19047;44.782;20.468;2022-07-15T12:49:51;100499.75;;;48.62;14.52
30347;BME280;19047;44.782;20.468;2022-07-15T12:53:25;100514.16;;;48.28;14.53
30347;BME280;19047;44.782;20.468;2022-07-15T12:56:49;100508.22;;;47.86;14.54
30347;BME280;19047;44.782;20.468;2022-07-15T13:00:22;100510.09;;;47.38;14.81
30347;BME280;19047;44.782;20.468;2022-07-15T13:03:39;100486.19;;;46.77;15.24
30347;BME280;19047;44.782;20.468;2022-07-15T13:07:10;100500.97;;;46.41;15.27
30347;BME280;19047;44.782;20.468;2022-07-15T13:10:28;100499.44;;;45.89;15.44
30347;BME280;19047;44.782;20.468;2022-07-15T13:14:00;100492.81;;;45.41;15.59
30347;BME280;19047;44.782;20.468;2022-07-15T13:17:24;100486.88;;;44.94;15.75
30347;BME280;19047;44.782;20.468;2022-07-15T13:20:55;100500.81;;;44.49;16.03
30347;BME280;19047;44.782;20.468;2022-07-15T13:24:14;100497.44;;;44.11;16.36
30347;BME280;19047;44.782;20.468;2022-07-15T13:27:45;100485.66;;;43.70;16.78
30347;BME280;19047;44.782;20.468;2022-07-15T13:31:03;100497.31;;;43.41;16.88
30347;BME280;19047;44.782;20.468;2022-07-15T13:34:32;100477.91;;;42.96;17.13
30347;BME280;19047;44.782;20.468;2022-07-15T13:37:50;100496.63;;;42.89;16.96
30347;BME280;19047;44.782;20.468;2022-07-15T13:41:24;100491.72;;;42.80;16.98
30347;BME280;19047;44.782;20.468;2022-07-15T13:44:41;100494.16;;;42.97;17.39
30347;BME280;19047;44.782;20.468;2022-07-15T13:48:11;100490.75;;;43.28;17.16
30347;BME280;19047;44.782;20.468;2022-07-15T13:51:28;100465.34;;;43.49;16.88
30347;BME280;19047;44.782;20.468;2022-07-15T13:55:04;100467.06;;;43.95;16.67
30347;BME280;19047;44.782;20.468;2022-07-15T13:58:21;100482.88;;;44.58;16.19
30347;BME280;19047;44.782;20.468;2022-07-15T14:01:51;100455.38;;;44.99;16.17
30347;BME280;19047;44.782;20.468;2022-07-15T14:05:10;100458.69;;;45.54;15.85
30347;BME280;19047;44.782;20.468;2022-07-15T14:08:41;100480.44;;;46.28;15.48
30347;BME280;19047;44.782;20.468;2022-07-15T14:11:58;100476.63;;;46.78;15.31
30347;BME280;19047;44.782;20.468;2022-07-15T14:15:29;100489.97;;;47.35;15.07
30347;BME280;19047;44.782;20.468;2022-07-15T14:18:46;100459.44;;;47.70;14.95
30347;BME280;19047;44.782;20.468;2022-07-15T14:22:21;100482.63;;;48.39;14.44
30347;BME280;19047;44.782;20.468;2022-07-15T14:25:38;100471.28;;;48.77;14.30
30347;BME280;19047;44.782;20.468;2022-07-15T14:29:13;100481.72;;;49.25;13.66
30347;BME280;19047;44.782;20.468;2022-07-15T14:32:30;100476.19;;;49.63;13.62
30347;BME280;19047;44.782;20.468;2022-07-15T14:36:00;100470.59;;;50.03;13.35
30347;BME280;19047;44.782;20.468;2022-07-15T14:39:17;100464.22;;;50.45;13.19
30347;BME280;19047;44.782;20.468;2022-07-15T14:42:47;100445.56;;;50.72;12.88
30347;BME280;19047;44.782;20.468;2022-07-15T14:46:04;100459.97;;;51.16;12.68
30347;BME280;19047;44.782;20.468;2022-07-15T14:49:35;100454.16;;;51.58;12.21
30347;BME280;19047;44.782;20.468;2022-07-15T14:52:53;100461.53;;;51.93;12.17
30347;BME280;19047;44.782;20.468;2022-07-15T14:56:23;100464.53;;;52.35;12.33
30347;BME280;19047;44.782;20.468;2022-07-15T14:59:40;100473.97;;;52.66;12.15
30347;BME280;19047;44.782;20.468;2022-07-15T15:03:12;100448.03;;;52.80;11.51
30347;BME280;19047;44.782;20.468;2022-07-15T15:06:30;100464.88;;;53.08;11.32
30347;BME280;19047;44.782;20.468;2022-07-15T15:09:59;100461.34;;;53.19;11.57
30347;BME280;19047;44.782;20.468;2022-07-15T15:13:16;100447.16;;;53.22;11.60
30347;BME280;19047;44.782;20.468;2022-07-15T15:16:47;100444.19;;;53.24;11.42
30347;BME280;19047;44.782;20.468;2022-07-15T15:20:05;100455.47;;;53.30;10.83
30347;BME280;19047;44.782;20.468;2022-07-15T15:23:35;100437.78;;;52.92;11.03
30347;BME280;19047;44.782;20.468;2022-07-15T15:26:52;100424.25;;;52.38;11.16
30347;BME280;19047;44.782;20.468;2022-07-15T15:30:25;100465.06;;;51.83;11.68
30347;BME280;19047;44.782;20.468;2022-07-15T15:33:43;100447.06;;;51.05;11.82
30347;BME280;19047;44.782;20.468;2022-07-15T15:37:15;100451.66;;;50.49;12.39
30347;BME280;19047;44.782;20.468;2022-07-15T15:40:32;100454.88;;;50.27;12.37
30347;BME280;19047;44.782;20.468;2022-07-15T15:44:02;100454.31;;;50.07;12.88
30347;BME280;19047;44.782;20.468;2022-07-15T15:47:18;100461.47;;;49.69;12.76
30347;BME280;19047;44.782;20.468;2022-07-15T15:50:49;100450.03;;;48.84;13.05
30347;BME280;19047;44.782;20.468;2022-07-15T15:54:05;100476.50;;;48.11;13.65
30347;BME280;19047;44.782;20.468;2022-07-15T15:57:36;100487.44;;;47.27;13.99
30347;BME280;19047;44.782;20.468;2022-07-15T16:00:54;100475.81;;;46.40;14.32
30347;BME280;19047;44.782;20.468;2022-07-15T16:04:23;100464.72;;;45.40;14.63
30347;BME280;19047;44.782;20.468;2022-07-15T16:07:40;100478.44;;;44.73;15.15
30347;BME280;19047;44.782;20.468;2022-07-15T16:11:11;100467.31;;;43.85;15.56
30347;BME280;19047;44.782;20.468;2022-07-15T16:14:29;100499.38;;;43.24;16.03
30347;BME280;19047;44.782;20.468;2022-07-15T16:17:59;100447.06;;;42.21;16.46
30347;BME280;19047;44.782;20.468;2022-07-15T16:21:17;100480.00;;;41.83;16.77
30347;BME280;19047;44.782;20.468;2022-07-15T16:25:07;100485.88;;;41.25;17.21
30347;BME280;19047;44.782;20.468;2022-07-15T16:28:24;100493.13;;;40.67;17.77
30347;BME280;19047;44.782;20.468;2022-07-15T16:31:54;100508.97;;;40.20;17.87
30347;BME280;19047;44.782;20.468;2022-07-15T16:35:12;100477.63;;;39.58;18.31
30347;BME280;19047;44.782;20.468;2022-07-15T16:38:42;100471.66;;;39.06;18.55
30347;BME280;19047;44.782;20.468;2022-07-15T16:41:59;100516.94;;;38.86;18.60
30347;BME280;19047;44.782;20.468;2022-07-15T16:45:30;100515.28;;;38.44;19.25
30347;BME280;19047;44.782;20.468;2022-07-15T16:48:47;100514.03;;;38.09;19.69
30347;BME280;19047;44.782;20.468;2022-07-15T16:52:17;100523.63;;;37.73;19.61
30347;BME280;19047;44.782;20.468;2022-07-15T16:55:34;100521.81;;;37.41;19.78
30347;BME280;19047;44.782;20.468;2022-07-15T16:59:05;100506.34;;;36.94;20.05
30347;BME280;19047;44.782;20.468;2022-07-15T17:02:22;100488.84;;;36.50;20.29
30347;BME280;19047;44.782;20.468;2022-07-15T17:05:53;100499.69;;;36.23;20.43
30347;BME280;19047;44.782;20.468;2022-07-15T17:09:11;100520.78;;;36.06;20.58
30347;BME280;19047;44.782;20.468;2022-07-15T17:12:42;100521.44;;;35.79;20.80
30347;BME280;19047;44.782;20.468;2022-07-15T17:15:59;100535.31;;;35.64;20.86
30347;BME280;19047;44.782;20.468;2022-07-15T17:19:29;100542.09;;;35.41;20.91
30347;BME280;19047;44.782;20.468;2022-07-15T17:22:47;100528.91;;;35.08;21.10
30347;BME280;19047;44.782;20.468;2022-07-15T17:26:17;100540.06;;;34.87;21.15
30347;BME280;19047;44.782;20.468;2022-07-15T17:29:35;100558.16;;;34.77;21.33
30347;BME280;19047;44.782;20.468;2022-07-15T17:33:06;100560.53;;;34.56;21.54
30347;BME280;19047;44.782;20.468;2022-07-15T17:36:24;100548.00;;;34.31;21.76
30347;BME280;19047;44.782;20.468;2022-07-15T17:39:54;100546.69;;;34.01;21.89
30347;BME280;19047;44.782;20.468;2022-07-15T17:43:13;100553.09;;;33.85;22.41
30347;BME280;19047;44.782;20.468;2022-07-15T17:46:43;100582.88;;;33.78;22.48
30347;BME280;19047;44.782;20.468;2022-07-15T17:50:01;100569.31;;;33.42;22.71
30347;BME280;19047;44.782;20.468;2022-07-15T17:53:33;100547.94;;;33.09;22.92
30347;BME280;19047;44.782;20.468;2022-07-15T17:56:49;100585.28;;;33.20;22.85
30347;BME280;19047;44.782;20.468;2022-07-15T18:00:20;100573.19;;;32.86;23.10
30347;BME280;19047;44.782;20.468;2022-07-15T18:03:37;100598.28;;;32.83;23.56
30347;BME280;19047;44.782;20.468;2022-07-15T18:07:08;100602.22;;;32.65;23.95
30347;BME280;19047;44.782;20.468;2022-07-15T18:10:26;100557.84;;;32.13;23.99
30347;BME280;19047;44.782;20.468;2022-07-15T18:13:57;100609.53;;;32.30;24.43
30347;BME280;19047;44.782;20.468;2022-07-15T18:17:14;100604.16;;;32.13;24.35
30347;BME280;19047;44.782;20.468;2022-07-15T18:20:44;100621.78;;;31.95;24.42